Time;durP1;ratioP1;P1;durP2;ratioP2;P2;SDS_P1;SDS_P2;PMS_P1;PMS_P2;Temp;Humidity;BMP_temperature;BMP_pressure;BME280_temperature;BME280_humidity;BME280_pressure;Samples;Min_cycle;Max_cycle;Signal;HPM_P1;HPM_P2
2021/03/03 00:00:45;;;;;;;20.88;10.48;;;10.70;99.90;;;;;;4151370;28;20615;-69
2021/03/03 00:02:46;;;;;;;21.77;11.30;;;10.60;99.90;;;;;;4152568;28;20489;-69
2021/03/03 00:04:46;;;;;;;18.80;10.27;;;10.60;99.90;;;;;;4156394;28;20033;-69
2021/03/03 00:06:47;;;;;;;18.35;10.93;;;10.60;99.90;;;;;;4155986;28;20044;-69
2021/03/03 00:08:47;;;;;;;21.02;11.07;;;10.50;99.90;;;;;;4146617;28;20036;-70
2021/03/03 00:10:48;;;;;;;20.42;10.82;;;10.50;99.90;;;;;;4148412;28;20040;-69
2021/03/03 00:12:49;;;;;;;20.77;11.75;;;10.40;99.90;;;;;;4138536;28;20312;-69
2021/03/03 00:14:49;;;;;;;20.88;10.52;;;10.40;99.90;;;;;;4157087;28;20086;-69
2021/03/03 00:16:50;;;;;;;23.55;11.50;;;10.40;99.90;;;;;;4131260;28;20042;-69
2021/03/03 00:18:50;;;;;;;22.00;11.48;;;10.40;99.90;;;;;;4156550;28;20030;-69
2021/03/03 00:20:51;;;;;;;20.67;11.20;;;10.30;99.90;;;;;;4156811;28;20038;-69
2021/03/03 00:22:52;;;;;;;23.83;12.05;;;10.40;99.90;;;;;;4156370;28;20469;-69
2021/03/03 00:24:52;;;;;;;20.63;10.82;;;10.30;99.90;;;;;;4159417;28;20030;-69
2021/03/03 00:26:53;;;;;;;18.23;10.27;;;10.30;99.90;;;;;;4158516;28;20424;-69
2021/03/03 00:28:55;;;;;;;21.98;12.45;;;10.30;99.90;;;;;;4160300;28;20033;-69
2021/03/03 00:30:55;;;;;;;26.10;11.93;;;10.30;99.90;;;;;;4157936;28;20068;-69
2021/03/03 00:32:56;;;;;;;21.10;11.48;;;10.30;99.90;;;;;;4159246;28;20041;-69
2021/03/03 00:34:57;;;;;;;20.77;11.38;;;10.30;99.90;;;;;;4149219;28;20045;-69
2021/03/03 00:36:57;;;;;;;21.58;10.73;;;10.30;99.90;;;;;;4152063;28;20091;-69
2021/03/03 00:38:58;;;;;;;21.60;12.13;;;10.20;99.90;;;;;;4155827;28;20044;-69
2021/03/03 00:40:59;;;;;;;28.38;12.55;;;10.20;99.90;;;;;;4155621;28;20041;-69
2021/03/03 00:43:00;;;;;;;23.35;12.82;;;10.20;99.90;;;;;;4155115;28;20442;-69
2021/03/03 00:45:02;;;;;;;23.33;12.75;;;10.20;99.90;;;;;;4158179;28;20030;-69
2021/03/03 00:47:03;;;;;;;25.38;13.43;;;10.20;99.90;;;;;;4155405;28;20037;-69
2021/03/03 00:49:03;;;;;;;23.85;13.18;;;10.10;99.90;;;;;;4152279;28;20034;-69
2021/03/03 00:51:04;;;;;;;28.42;14.27;;;10.20;99.90;;;;;;4157998;28;20083;-69
2021/03/03 00:53:12;;;;;;;24.45;14.50;;;10.20;99.90;;;;;;4156461;28;20040;-69
2021/03/03 00:55:13;;;;;;;27.10;13.30;;;10.20;99.90;;;;;;4154946;28;20037;-72
2021/03/03 00:57:14;;;;;;;30.50;15.13;;;10.10;99.90;;;;;;4143950;28;20046;-69
2021/03/03 00:59:14;;;;;;;29.60;16.15;;;10.10;99.90;;;;;;4155248;28;20028;-69
2021/03/03 01:01:15;;;;;;;29.70;16.52;;;10.10;99.90;;;;;;4157339;28;20484;-69
2021/03/03 01:03:15;;;;;;;36.08;18.05;;;10.10;99.90;;;;;;4158676;28;20474;-69
2021/03/03 01:05:16;;;;;;;29.15;16.60;;;10.10;99.90;;;;;;4156455;28;20501;-69
2021/03/03 01:07:17;;;;;;;31.02;17.08;;;10.00;99.90;;;;;;4154367;28;20100;-69
2021/03/03 01:09:18;;;;;;;29.88;17.38;;;10.10;99.90;;;;;;4159541;28;20045;-69
2021/03/03 01:11:20;;;;;;;36.10;18.42;;;10.10;99.90;;;;;;4155142;28;20062;-69
2021/03/03 01:13:21;;;;;;;30.45;16.83;;;10.10;99.90;;;;;;4155180;28;20058;-69
2021/03/03 01:15:22;;;;;;;28.48;17.08;;;10.10;99.90;;;;;;4159136;28;20115;-69
2021/03/03 01:17:22;;;;;;;33.03;17.20;;;10.10;99.90;;;;;;4154199;28;20041;-69
2021/03/03 01:19:23;;;;;;;34.90;17.50;;;10.10;99.90;;;;;;4156568;28;20033;-69
2021/03/03 01:21:24;;;;;;;33.10;18.70;;;10.10;99.90;;;;;;4157872;28;20048;-69
2021/03/03 01:23:24;;;;;;;35.53;18.40;;;10.10;99.90;;;;;;4158784;28;20029;-69
2021/03/03 01:25:25;;;;;;;33.72;18.77;;;10.10;99.90;;;;;;4158630;28;20045;-69
2021/03/03 01:27:26;;;;;;;34.58;18.77;;;10.10;99.90;;;;;;4155623;28;20528;-69
2021/03/03 01:29:35;;;;;;;35.03;19.83;;;10.10;99.90;;;;;;4152846;28;20038;-69
2021/03/03 01:31:36;;;;;;;38.53;21.60;;;10.10;99.90;;;;;;4150841;28;20514;-69
2021/03/03 01:33:37;;;;;;;42.33;21.58;;;10.10;99.90;;;;;;4156741;28;20037;-69
2021/03/03 01:35:37;;;;;;;39.45;20.70;;;10.10;99.90;;;;;;4153679;28;20052;-69
2021/03/03 01:37:38;;;;;;;37.17;19.15;;;10.00;99.90;;;;;;4158907;28;20448;-69
2021/03/03 01:39:41;;;;;;;30.42;18.52;;;10.00;99.90;;;;;;4154528;28;20029;-69
2021/03/03 01:41:41;;;;;;;31.40;18.48;;;10.00;99.90;;;;;;4156560;28;20075;-69
2021/03/03 01:43:42;;;;;;;35.42;18.25;;;10.00;99.90;;;;;;4158598;28;20041;-69
2021/03/03 01:45:43;;;;;;;31.38;17.48;;;10.10;99.90;;;;;;4150995;28;20052;-69
2021/03/03 01:47:43;;;;;;;30.60;17.20;;;10.10;99.90;;;;;;4153269;28;20123;-69
2021/03/03 01:49:44;;;;;;;32.42;17.05;;;10.10;99.90;;;;;;4155654;28;20053;-69
2021/03/03 01:51:45;;;;;;;25.42;14.77;;;10.10;99.90;;;;;;4158494;28;20562;-69
2021/03/03 01:53:45;;;;;;;26.35;14.63;;;10.10;99.90;;;;;;4156399;28;20046;-69
2021/03/03 01:55:47;;;;;;;26.45;15.25;;;10.10;99.90;;;;;;4157693;28;20037;-69
2021/03/03 01:57:47;;;;;;;24.10;13.70;;;10.10;99.90;;;;;;4158625;28;20036;-69
2021/03/03 01:59:48;;;;;;;26.88;15.20;;;10.10;99.90;;;;;;4156585;28;20113;-69
2021/03/03 02:01:49;;;;;;;24.98;14.68;;;10.10;99.90;;;;;;4149030;28;20042;-69
2021/03/03 02:03:50;;;;;;;22.20;13.35;;;10.00;99.90;;;;;;4131874;28;20081;-69
2021/03/03 02:05:54;;;;;;;24.33;13.95;;;10.00;99.90;;;;;;4147994;28;20817;-69
2021/03/03 02:08:11;;;;;;;23.58;12.65;;;10.00;99.90;;;;;;4155790;28;20069;-69
2021/03/03 02:10:16;;;;;;;20.63;12.38;;;10.00;99.90;;;;;;4148825;28;20592;-69
2021/03/03 02:12:43;;;;;;;25.13;13.15;;;10.00;99.90;;;;;;4154183;28;20033;-69
2021/03/03 02:14:48;;;;;;;18.75;11.45;;;10.00;99.90;;;;;;4156445;28;20136;-69
2021/03/03 02:16:51;;;;;;;23.50;12.65;;;10.00;99.90;;;;;;4156080;28;20037;-69
2021/03/03 02:18:53;;;;;;;21.15;12.27;;;9.90;99.90;;;;;;4158493;28;20041;-69
2021/03/03 02:21:01;;;;;;;21.63;11.53;;;9.90;99.90;;;;;;4156351;28;20056;-69
2021/03/03 02:23:37;;;;;;;21.10;11.73;;;9.90;99.90;;;;;;4155967;28;20279;-69
2021/03/03 02:25:40;;;;;;;23.17;12.43;;;9.90;99.90;;;;;;4156354;28;20037;-69
2021/03/03 02:27:41;;;;;;;24.60;12.70;;;9.90;99.90;;;;;;4158977;28;20041;-69
2021/03/03 02:29:42;;;;;;;21.67;12.05;;;9.90;99.90;;;;;;4156160;28;20041;-69
2021/03/03 02:31:45;;;;;;;28.38;14.48;;;9.80;99.90;;;;;;4158768;28;20037;-69
2021/03/03 02:33:46;;;;;;;;;;;9.80;99.90;;;;;;4157175;28;20103;-69
2021/03/03 02:35:48;;;;;;;26.30;14.93;;;9.80;99.90;;;;;;4153671;28;20051;-69
2021/03/03 02:37:49;;;;;;;25.13;14.27;;;9.70;99.90;;;;;;4155617;28;20497;-69
2021/03/03 02:39:51;;;;;;;27.27;15.15;;;9.70;99.90;;;;;;4157740;28;20075;-69
2021/03/03 02:41:52;;;;;;;27.10;14.30;;;9.70;99.90;;;;;;4156443;28;20121;-69
2021/03/03 02:43:55;;;;;;;27.85;15.27;;;9.60;99.90;;;;;;4156435;28;20395;-69
2021/03/03 02:45:57;;;;;;;28.23;15.38;;;9.70;99.90;;;;;;4154406;28;20038;-69
2021/03/03 02:47:59;;;;;;;32.40;16.20;;;9.60;99.90;;;;;;4150275;28;20252;-69
2021/03/03 02:50:00;;;;;;;30.60;15.15;;;9.60;99.90;;;;;;4152901;28;20080;-69
2021/03/03 02:52:01;;;;;;;35.97;17.10;;;9.60;99.90;;;;;;4155228;28;20038;-69
2021/03/03 02:54:02;;;;;;;30.80;15.88;;;9.60;99.90;;;;;;4153135;28;20064;-69
2021/03/03 02:56:02;;;;;;;29.83;15.60;;;9.60;99.90;;;;;;4155062;28;20116;-69
2021/03/03 02:58:04;;;;;;;28.75;15.88;;;9.60;99.90;;;;;;4153760;28;20099;-69
2021/03/03 03:00:06;;;;;;;28.35;15.60;;;9.50;99.90;;;;;;4154646;28;20113;-69
2021/03/03 03:02:11;;;;;;;25.83;14.77;;;9.60;99.90;;;;;;4155905;28;20540;-69
2021/03/03 03:04:14;;;;;;;27.48;15.75;;;9.50;99.90;;;;;;4153417;28;20033;-69
2021/03/03 03:06:24;;;;;;;27.08;15.02;;;9.50;99.90;;;;;;4154678;28;20050;-69
2021/03/03 03:08:28;;;;;;;28.15;14.85;;;9.50;99.90;;;;;;4153624;28;20077;-69
2021/03/03 03:10:30;;;;;;;28.67;15.05;;;9.50;99.90;;;;;;4154552;28;20049;-69
2021/03/03 03:12:31;;;;;;;33.33;16.00;;;9.50;99.90;;;;;;4155268;28;20041;-69
2021/03/03 03:14:33;;;;;;;28.38;15.25;;;9.50;99.90;;;;;;4156823;28;20048;-69
2021/03/03 03:16:35;;;;;;;25.55;13.40;;;9.50;99.90;;;;;;4156348;28;20098;-69
2021/03/03 03:18:41;;;;;;;26.05;13.98;;;9.50;99.90;;;;;;4155416;28;20065;-69
2021/03/03 03:20:44;;;;;;;25.63;13.57;;;9.50;99.90;;;;;;4152333;28;20041;-69
2021/03/03 03:22:47;;;;;;;22.60;12.68;;;9.50;99.90;;;;;;4153277;28;20139;-69
2021/03/03 03:24:48;;;;;;;25.98;13.00;;;9.50;99.90;;;;;;4155942;28;20421;-69
2021/03/03 03:26:49;;;;;;;24.80;13.82;;;9.50;99.90;;;;;;4156768;28;20497;-69
2021/03/03 03:28:50;;;;;;;22.73;13.52;;;9.50;99.90;;;;;;4156910;28;20038;-69
2021/03/03 03:30:52;;;;;;;20.63;12.98;;;9.40;99.90;;;;;;4154968;28;20472;-69
2021/03/03 03:32:54;;;;;;;21.75;12.35;;;9.50;99.90;;;;;;4155934;28;20045;-69
2021/03/03 03:34:55;;;;;;;23.35;12.25;;;9.50;99.90;;;;;;4180583;28;20068;-69
2021/03/03 03:36:57;;;;;;;24.65;13.35;;;9.50;99.90;;;;;;4157065;28;20037;-70
2021/03/03 03:38:57;;;;;;;26.42;12.10;;;9.40;99.90;;;;;;4155242;28;20033;-70
2021/03/03 03:41:08;;;;;;;23.80;13.07;;;9.40;99.90;;;;;;4156429;28;20083;-69
2021/03/03 03:43:11;;;;;;;26.95;12.95;;;9.40;99.90;;;;;;4154623;28;20144;-69
2021/03/03 03:45:13;;;;;;;25.02;13.35;;;9.40;99.90;;;;;;4154567;28;20093;-70
2021/03/03 03:47:18;;;;;;;25.45;13.32;;;9.30;99.90;;;;;;4156852;28;20121;-69
2021/03/03 03:49:19;;;;;;;23.08;12.65;;;9.30;99.90;;;;;;4155231;28;20101;-69
2021/03/03 03:51:20;;;;;;;24.13;13.43;;;9.30;99.90;;;;;;4156220;28;20128;-69
2021/03/03 03:53:24;;;;;;;21.65;12.75;;;9.30;99.90;;;;;;4155326;28;20529;-69
2021/03/03 03:55:38;;;;;;;21.27;12.45;;;9.20;99.90;;;;;;4156641;28;20059;-69
2021/03/03 03:57:50;;;;;;;20.20;12.10;;;9.20;99.90;;;;;;4156183;28;20466;-69
2021/03/03 03:59:51;;;;;;;22.88;12.25;;;9.20;99.90;;;;;;4155120;28;20099;-70
2021/03/03 04:01:51;;;;;;;21.88;11.98;;;9.20;99.90;;;;;;4153916;28;20519;-69
2021/03/03 04:03:52;;;;;;;21.50;11.80;;;9.20;99.90;;;;;;4156435;28;20505;-69
2021/03/03 04:05:52;;;;;;;27.63;12.93;;;9.20;99.90;;;;;;4156054;28;20474;-69
2021/03/03 04:07:54;;;;;;;26.13;12.93;;;9.10;99.90;;;;;;4156215;28;20382;-69
2021/03/03 04:09:55;;;;;;;23.58;12.90;;;9.10;99.90;;;;;;4155985;28;20452;-69
2021/03/03 04:11:57;;;;;;;24.13;11.98;;;9.10;99.90;;;;;;4138240;28;20045;-69
2021/03/03 04:13:58;;;;;;;24.10;12.18;;;9.10;99.90;;;;;;4154971;28;20041;-69
2021/03/03 04:15:58;;;;;;;25.52;13.13;;;9.10;99.90;;;;;;4155803;28;20063;-69
2021/03/03 04:17:59;;;;;;;21.70;11.63;;;9.10;99.90;;;;;;4154680;28;20030;-70
2021/03/03 04:20:00;;;;;;;22.95;13.02;;;9.10;99.90;;;;;;4156454;28;20511;-69
2021/03/03 04:22:01;;;;;;;22.38;13.38;;;9.10;99.90;;;;;;4154173;28;20030;-70
2021/03/03 04:24:02;;;;;;;25.05;13.25;;;9.10;99.90;;;;;;4155754;28;20108;-69
2021/03/03 04:26:02;;;;;;;30.38;14.00;;;9.10;99.90;;;;;;4152992;28;20295;-69
2021/03/03 04:28:04;;;;;;;28.73;14.40;;;9.00;99.90;;;;;;4156502;28;20125;-69
2021/03/03 04:30:08;;;;;;;29.08;15.27;;;9.00;99.90;;;;;;4153732;28;20143;-69
2021/03/03 04:32:08;;;;;;;33.80;17.98;;;9.00;99.90;;;;;;4155199;28;20033;-69
2021/03/03 04:34:09;;;;;;;38.45;20.05;;;8.90;99.90;;;;;;4156568;28;20041;-69
2021/03/03 04:36:09;;;;;;;39.35;21.67;;;8.90;99.90;;;;;;4154629;28;20036;-69
2021/03/03 04:38:10;;;;;;;45.05;24.02;;;8.90;99.90;;;;;;4145157;28;20088;-69
2021/03/03 04:40:11;;;;;;;49.85;24.35;;;8.90;99.90;;;;;;4156006;28;20034;-70
2021/03/03 04:42:11;;;;;;;47.50;25.42;;;8.90;99.90;;;;;;4154134;28;20041;-69
2021/03/03 04:44:12;;;;;;;56.20;27.38;;;9.00;99.90;;;;;;4144467;28;20030;-69
2021/03/03 04:46:12;;;;;;;54.83;27.30;;;8.90;99.90;;;;;;4150941;28;20030;-69
2021/03/03 04:48:13;;;;;;;49.00;26.48;;;9.00;99.90;;;;;;4144869;28;20048;-69
2021/03/03 04:50:14;;;;;;;50.92;26.80;;;9.00;99.90;;;;;;4156254;28;20045;-69
2021/03/03 04:52:14;;;;;;;54.08;28.60;;;9.00;99.90;;;;;;4155819;28;20063;-69
2021/03/03 04:54:15;;;;;;;49.85;26.15;;;9.00;99.90;;;;;;4154391;28;20409;-69
2021/03/03 04:56:15;;;;;;;53.22;27.27;;;9.00;99.90;;;;;;4153644;28;20036;-69
2021/03/03 04:58:16;;;;;;;50.65;26.92;;;9.00;99.90;;;;;;4156452;28;20120;-69
2021/03/03 05:00:17;;;;;;;46.03;24.85;;;9.00;99.90;;;;;;4156263;28;20067;-69
2021/03/03 05:02:18;;;;;;;50.60;26.73;;;9.00;99.90;;;;;;4153126;28;20037;-69
2021/03/03 05:04:19;;;;;;;43.50;24.42;;;9.00;99.90;;;;;;4154395;28;20034;-69
2021/03/03 05:06:22;;;;;;;51.30;27.50;;;9.00;99.90;;;;;;4154298;28;20049;-69
2021/03/03 05:08:23;;;;;;;48.72;25.67;;;9.00;99.90;;;;;;4156217;28;20116;-69
2021/03/03 05:10:23;;;;;;;50.55;25.08;;;9.00;99.90;;;;;;4154585;28;20547;-69
2021/03/03 05:12:24;;;;;;;46.10;24.90;;;9.00;99.90;;;;;;4150245;28;20049;-69
2021/03/03 05:14:25;;;;;;;43.95;24.33;;;9.00;99.90;;;;;;4157651;28;20061;-69
2021/03/03 05:16:25;;;;;;;41.22;22.75;;;9.00;99.90;;;;;;4156222;28;20401;-69
2021/03/03 05:18:26;;;;;;;38.90;21.35;;;9.00;99.90;;;;;;4156458;28;20225;-70
2021/03/03 05:20:27;;;;;;;40.05;22.67;;;9.00;99.90;;;;;;4157980;28;20061;-69
2021/03/03 05:22:27;;;;;;;36.13;20.35;;;9.00;99.90;;;;;;4158516;28;20119;-69
2021/03/03 05:24:28;;;;;;;35.13;19.98;;;9.00;99.90;;;;;;4159842;28;20401;-69
2021/03/03 05:26:29;;;;;;;37.25;20.73;;;9.10;99.90;;;;;;4159529;28;20037;-69
2021/03/03 05:28:30;;;;;;;33.70;19.02;;;9.00;99.90;;;;;;4158350;28;20485;-69
2021/03/03 05:30:31;;;;;;;33.47;19.27;;;9.00;99.90;;;;;;4157428;28;20470;-70
2021/03/03 05:32:31;;;;;;;37.83;19.33;;;9.00;99.90;;;;;;4156197;28;20026;-70
2021/03/03 05:34:32;;;;;;;33.38;18.55;;;9.00;99.90;;;;;;4157716;28;20116;-69
2021/03/03 05:36:33;;;;;;;33.15;17.58;;;9.00;99.90;;;;;;4158909;28;20393;-69
2021/03/03 05:38:35;;;;;;;29.23;17.73;;;8.90;99.90;;;;;;4158412;28;20060;-69
2021/03/03 05:40:35;;;;;;;34.33;16.48;;;8.90;99.90;;;;;;4158345;28;20099;-69
2021/03/03 05:42:37;;;;;;;26.75;15.70;;;8.80;99.90;;;;;;4156016;28;20034;-69
2021/03/03 05:44:38;;;;;;;29.83;16.08;;;8.80;99.90;;;;;;4157410;28;20099;-69
2021/03/03 05:46:39;;;;;;;31.50;16.45;;;8.80;99.90;;;;;;4156546;28;20120;-69
2021/03/03 05:48:51;;;;;;;26.02;15.10;;;8.70;99.90;;;;;;4150185;28;20077;-69
2021/03/03 05:51:04;;;;;;;28.08;16.05;;;8.70;99.90;;;;;;4155481;28;20045;-69
2021/03/03 05:53:05;;;;;;;29.73;16.50;;;8.60;99.90;;;;;;4156037;28;20056;-69
2021/03/03 05:55:07;;;;;;;26.27;15.02;;;8.70;99.90;;;;;;4158202;28;20037;-68
2021/03/03 05:57:09;;;;;;;32.75;15.57;;;8.70;99.90;;;;;;4156560;28;20041;-69
2021/03/03 05:59:11;;;;;;;27.42;15.20;;;8.70;99.90;;;;;;4155800;28;20038;-68
2021/03/03 06:01:12;;;;;;;25.58;14.35;;;8.60;99.90;;;;;;4156057;28;20292;-72
2021/03/03 06:03:13;;;;;;;25.98;14.45;;;8.70;99.90;;;;;;4157014;28;20512;-72
2021/03/03 06:05:14;;;;;;;27.75;15.18;;;8.60;99.90;;;;;;4156391;28;20057;-72
2021/03/03 06:07:15;;;;;;;22.80;13.57;;;8.60;99.90;;;;;;4146373;28;20045;-72
2021/03/03 06:09:16;;;;;;;24.85;14.15;;;8.60;99.90;;;;;;4157969;28;20042;-72
2021/03/03 06:11:18;;;;;;;28.05;15.00;;;8.60;99.90;;;;;;4157185;28;20527;-72
2021/03/03 06:13:19;;;;;;;;;;;8.60;99.90;;;;;;4152056;28;20564;-72
2021/03/03 06:15:20;;;;;;;26.63;13.77;;;8.60;99.90;;;;;;4143903;28;19917;-72
2021/03/03 06:17:20;;;;;;;27.95;14.13;;;8.70;99.90;;;;;;4148600;28;20625;-72
2021/03/03 06:19:21;;;;;;;23.65;13.60;;;8.70;99.90;;;;;;4155991;28;20029;-72
2021/03/03 06:21:26;;;;;;;28.23;15.20;;;8.70;99.90;;;;;;4154066;28;20117;-72
2021/03/03 06:23:31;;;;;;;23.80;13.20;;;8.70;99.90;;;;;;4148348;28;20042;-72
2021/03/03 06:25:32;;;;;;;25.17;13.23;;;8.70;99.90;;;;;;4156025;28;20420;-72
2021/03/03 06:27:39;;;;;;;23.42;13.27;;;8.70;99.90;;;;;;4155554;28;20026;-72
2021/03/03 06:29:40;;;;;;;23.75;13.52;;;8.70;99.90;;;;;;4157626;28;20481;-72
2021/03/03 06:31:41;;;;;;;22.67;12.70;;;8.70;99.90;;;;;;4155366;28;20044;-72
2021/03/03 06:33:42;;;;;;;22.88;12.60;;;8.70;99.90;;;;;;4156438;28;20037;-72
2021/03/03 06:35:46;;;;;;;24.58;13.15;;;8.70;99.90;;;;;;4125501;28;20243;-72
2021/03/03 06:38:11;;;;;;;24.92;13.80;;;8.70;99.90;;;;;;4152864;28;20033;-73
2021/03/03 06:40:12;;;;;;;22.13;13.48;;;8.70;99.90;;;;;;4155814;28;20395;-72
2021/03/03 06:42:25;;;;;;;25.73;13.23;;;8.70;99.90;;;;;;4157128;28;20073;-72
2021/03/03 06:44:51;;;;;;;27.23;14.73;;;8.70;99.90;;;;;;4156890;28;20390;-73
2021/03/03 06:47:04;;;;;;;24.23;13.38;;;8.70;99.90;;;;;;4156100;28;20042;-72
2021/03/03 06:49:04;;;;;;;25.35;13.20;;;8.70;99.90;;;;;;4155297;28;20045;-73
2021/03/03 06:51:47;;;;;;;26.75;14.02;;;8.80;99.90;;;;;;4156025;28;20033;-72
2021/03/03 06:53:47;;;;;;;28.13;14.00;;;8.80;99.90;;;;;;4084506;28;20051;-73
2021/03/03 06:55:49;;;;;;;24.45;13.35;;;8.70;99.90;;;;;;4105208;28;20130;-73
2021/03/03 06:57:50;;;;;;;27.33;13.73;;;8.70;99.90;;;;;;4105403;28;20027;-72
2021/03/03 06:59:51;;;;;;;26.33;13.68;;;8.70;99.90;;;;;;4149861;28;20515;-73
2021/03/03 07:01:56;;;;;;;26.88;14.60;;;8.70;99.90;;;;;;4155733;28;20124;-72
2021/03/03 07:03:57;;;;;;;24.98;12.70;;;8.70;99.90;;;;;;4138293;28;20439;-72
2021/03/03 07:05:58;;;;;;;30.65;12.85;;;8.70;99.90;;;;;;4148509;28;20458;-72
2021/03/03 07:08:03;;;;;;;24.92;13.82;;;8.70;99.90;;;;;;4151847;28;20045;-72
2021/03/03 07:10:04;;;;;;;23.30;12.63;;;8.70;99.90;;;;;;4155594;28;20033;-72
2021/03/03 07:12:11;;;;;;;26.27;13.75;;;8.70;99.90;;;;;;4150867;28;20390;-72
2021/03/03 07:14:21;;;;;;;23.45;13.05;;;8.80;99.90;;;;;;4151424;28;20038;-73
2021/03/03 07:16:21;;;;;;;23.70;12.93;;;8.80;99.90;;;;;;4149087;28;20053;-73
2021/03/03 07:18:33;;;;;;;25.25;13.23;;;8.80;99.90;;;;;;4153863;28;20119;-73
2021/03/03 07:20:44;;;;;;;23.02;13.38;;;8.80;99.90;;;;;;4150305;28;20094;-73
2021/03/03 07:22:53;;;;;;;24.05;13.88;;;8.90;99.90;;;;;;4153714;28;20090;-72
2021/03/03 07:25:00;;;;;;;23.05;13.05;;;8.90;99.90;;;;;;4148432;28;20029;-72
2021/03/03 07:27:03;;;;;;;28.55;13.88;;;8.90;99.90;;;;;;4155271;28;20060;-72
2021/03/03 07:29:05;;;;;;;28.08;14.38;;;8.90;99.90;;;;;;4128561;28;20533;-72
2021/03/03 07:31:07;;;;;;;24.63;13.40;;;8.90;99.90;;;;;;4153858;28;20037;-72
2021/03/03 07:33:09;;;;;;;;;;;8.90;99.90;;;;;;4153801;28;20033;-72
2021/03/03 07:35:11;;;;;;;22.60;12.77;;;8.90;99.90;;;;;;4155714;28;19952;-72
2021/03/03 07:37:13;;;;;;;21.52;12.77;;;9.00;99.90;;;;;;4155060;28;20037;-72
2021/03/03 07:39:14;;;;;;;22.05;12.82;;;8.90;99.90;;;;;;4154514;28;20040;-72
2021/03/03 07:41:16;;;;;;;24.58;12.50;;;9.00;99.90;;;;;;4151657;28;20120;-72
2021/03/03 07:43:24;;;;;;;21.80;12.43;;;9.00;99.90;;;;;;4154536;28;20080;-72
2021/03/03 07:45:35;;;;;;;25.15;12.98;;;9.10;99.90;;;;;;4154054;28;20168;-72
2021/03/03 07:47:39;;;;;;;28.50;14.25;;;9.10;99.90;;;;;;4155564;28;20037;-73
2021/03/03 07:49:40;;;;;;;;;;;9.20;99.90;;;;;;4155660;28;20298;-72
2021/03/03 07:51:41;;;;;;;23.35;12.82;;;9.20;99.90;;;;;;4154019;28;19917;-72
2021/03/03 07:53:43;;;;;;;23.15;11.95;;;9.30;99.90;;;;;;4152213;28;20034;-72
2021/03/03 07:55:44;;;;;;;27.02;14.00;;;9.40;99.90;;;;;;4156346;28;20106;-72
2021/03/03 07:57:50;;;;;;;23.92;14.13;;;9.40;99.90;;;;;;4155097;28;20044;-72
2021/03/03 07:59:52;;;;;;;27.92;13.25;;;9.50;99.90;;;;;;4154832;28;20050;-72
2021/03/03 08:01:53;;;;;;;25.33;13.80;;;9.50;99.90;;;;;;4155101;28;20486;-72
2021/03/03 08:03:54;;;;;;;29.52;14.35;;;9.50;99.90;;;;;;4155216;28;20044;-72
2021/03/03 08:05:54;;;;;;;23.02;13.07;;;9.50;99.90;;;;;;4155767;28;20034;-72
2021/03/03 08:08:10;;;;;;;25.10;13.02;;;9.60;99.90;;;;;;4155924;28;20072;-72
2021/03/03 08:10:14;;;;;;;27.80;14.52;;;9.70;99.90;;;;;;4152436;28;20500;-72
2021/03/03 08:12:14;;;;;;;26.38;13.35;;;9.70;99.90;;;;;;4155820;28;20061;-72
2021/03/03 08:14:28;;;;;;;28.90;14.57;;;9.70;99.90;;;;;;4154548;28;20064;-72
2021/03/03 08:16:28;;;;;;;24.35;13.90;;;9.70;99.90;;;;;;4147739;28;20531;-72
2021/03/03 08:18:49;;;;;;;24.63;13.25;;;9.70;99.90;;;;;;4148979;28;20042;-72
2021/03/03 08:21:01;;;;;;;23.60;13.30;;;9.70;99.90;;;;;;4151163;28;20753;-72
2021/03/03 08:23:01;;;;;;;28.48;14.52;;;9.70;99.90;;;;;;4152181;28;20042;-72
2021/03/03 08:25:02;;;;;;;27.20;15.50;;;9.80;99.90;;;;;;4155183;28;20397;-72
2021/03/03 08:27:41;;;;;;;29.08;14.73;;;9.80;99.90;;;;;;4176519;28;20397;-72
2021/03/03 08:30:12;;;;;;;27.70;13.57;;;9.80;99.90;;;;;;4102101;28;20038;-72
2021/03/03 08:32:23;;;;;;;28.63;13.32;;;9.90;99.90;;;;;;4118319;28;20349;-71
2021/03/03 08:34:24;;;;;;;26.88;14.00;;;9.90;99.90;;;;;;4113766;28;20034;-72
2021/03/03 08:36:25;;;;;;;27.65;14.00;;;9.90;99.90;;;;;;4154804;28;20131;-71
2021/03/03 08:38:25;;;;;;;29.50;14.20;;;10.00;99.90;;;;;;4154043;28;20172;-72
2021/03/03 08:40:27;;;;;;;27.10;14.55;;;10.10;99.90;;;;;;4154601;28;20037;-72
2021/03/03 08:42:30;;;;;;;30.88;14.63;;;10.00;99.90;;;;;;4155168;28;20038;-72
2021/03/03 08:44:31;;;;;;;26.08;13.50;;;10.10;99.90;;;;;;4154364;28;20102;-72
2021/03/03 08:46:33;;;;;;;25.70;13.60;;;10.20;99.90;;;;;;4155780;28;20101;-72
2021/03/03 08:48:33;;;;;;;27.90;14.70;;;10.30;99.90;;;;;;4157947;28;20045;-72
2021/03/03 08:50:39;;;;;;;25.73;14.20;;;10.40;99.90;;;;;;4156985;28;20502;-72
2021/03/03 08:53:18;;;;;;;25.75;13.57;;;10.50;99.90;;;;;;4156723;28;20040;-72
2021/03/03 08:55:29;;;;;;;25.48;13.98;;;10.70;99.90;;;;;;4156048;28;20390;-72
2021/03/03 08:57:35;;;;;;;24.80;13.77;;;10.80;99.90;;;;;;4157099;28;20107;-72
2021/03/03 08:59:36;;;;;;;26.20;13.88;;;11.00;99.90;;;;;;4157697;28;20033;-72
2021/03/03 09:02:05;;;;;;;24.48;13.90;;;11.10;99.90;;;;;;4157359;28;20025;-72
2021/03/03 09:04:06;;;;;;;26.05;13.70;;;11.30;99.90;;;;;;4157830;28;20033;-72
2021/03/03 09:06:06;;;;;;;24.00;13.57;;;11.40;99.90;;;;;;4157832;28;20048;-72
2021/03/03 09:08:18;;;;;;;29.73;15.15;;;11.40;99.90;;;;;;4157431;28;20049;-72
2021/03/03 09:10:20;;;;;;;23.02;13.48;;;11.50;99.90;;;;;;4156837;28;20048;-71
2021/03/03 09:12:27;;;;;;;24.80;12.80;;;11.50;99.90;;;;;;4139273;28;20528;-71
2021/03/03 09:14:28;;;;;;;26.40;14.40;;;11.60;99.90;;;;;;4156564;28;20132;-72
2021/03/03 09:16:29;;;;;;;24.20;14.65;;;11.60;99.90;;;;;;4157432;28;20049;-72
2021/03/03 09:18:30;;;;;;;28.88;14.35;;;11.60;99.90;;;;;;4154831;28;20080;-72
2021/03/03 09:20:31;;;;;;;28.02;14.35;;;11.70;99.90;;;;;;4158125;28;20121;-71
2021/03/03 09:22:37;;;;;;;28.60;13.98;;;11.70;99.90;;;;;;4157082;28;20393;-71
2021/03/03 09:24:38;;;;;;;28.48;15.10;;;11.70;99.90;;;;;;4155521;28;20314;-71
2021/03/03 09:26:41;;;;;;;23.63;13.40;;;11.70;99.90;;;;;;4139864;28;20470;-72
2021/03/03 09:28:42;;;;;;;26.15;14.80;;;11.80;99.90;;;;;;4156794;28;20038;-72
2021/03/03 09:30:43;;;;;;;29.08;15.20;;;11.90;99.90;;;;;;4158426;28;20030;-71
2021/03/03 09:32:45;;;;;;;25.27;13.93;;;12.00;99.90;;;;;;4153865;28;20378;-71
2021/03/03 09:35:02;;;;;;;26.48;15.35;;;12.00;99.90;;;;;;4156939;28;20037;-72
2021/03/03 09:37:04;;;;;;;31.13;15.32;;;12.10;99.90;;;;;;4154577;28;20041;-72
2021/03/03 09:39:05;;;;;;;27.85;15.80;;;12.10;99.90;;;;;;4156456;28;20535;-72
2021/03/03 09:41:09;;;;;;;30.52;16.13;;;12.20;99.90;;;;;;4157929;28;20113;-72
2021/03/03 09:43:15;;;;;;;31.30;14.95;;;12.30;99.90;;;;;;4156188;28;20037;-72
2021/03/03 09:45:23;;;;;;;28.25;16.10;;;12.30;99.90;;;;;;4158109;28;20544;-72
2021/03/03 09:47:34;;;;;;;30.05;16.05;;;12.30;99.90;;;;;;4140257;28;20042;-72
2021/03/03 09:49:37;;;;;;;25.50;14.20;;;12.30;99.90;;;;;;4155522;28;20390;-72
2021/03/03 09:51:44;;;;;;;31.52;16.15;;;12.30;99.90;;;;;;4155357;28;20192;-72
2021/03/03 09:53:52;;;;;;;30.80;17.38;;;12.30;99.90;;;;;;4154819;28;20108;-72
2021/03/03 09:55:53;;;;;;;34.85;18.23;;;12.40;99.90;;;;;;4147555;28;20037;-72
2021/03/03 09:57:56;;;;;;;33.63;17.17;;;12.40;99.90;;;;;;4122253;28;20391;-72
2021/03/03 09:59:57;;;;;;;;;;;12.50;99.90;;;;;;4156873;28;20034;-72
2021/03/03 10:01:59;;;;;;;26.13;15.30;;;12.50;99.90;;;;;;4154270;28;19924;-72
2021/03/03 10:03:59;;;;;;;26.85;15.65;;;12.60;99.90;;;;;;4147380;28;20037;-72
2021/03/03 10:06:00;;;;;;;30.58;16.30;;;12.70;99.90;;;;;;4153017;28;20041;-72
2021/03/03 10:08:05;;;;;;;29.05;15.88;;;12.70;99.90;;;;;;4156167;28;20068;-72
2021/03/03 10:10:06;;;;;;;29.77;16.80;;;12.80;99.90;;;;;;4151602;28;20133;-72
2021/03/03 10:12:14;;;;;;;29.23;17.75;;;12.90;99.90;;;;;;4149278;28;20032;-72
2021/03/03 10:14:15;;;;;;;33.42;18.55;;;13.00;99.90;;;;;;4150505;28;20512;-72
2021/03/03 10:16:19;;;;;;;36.55;19.83;;;13.10;99.90;;;;;;4184329;28;20040;-72
2021/03/03 10:18:21;;;;;;;38.78;20.08;;;13.10;99.90;;;;;;4152836;28;20080;-72
2021/03/03 10:20:40;;;;;;;37.40;20.88;;;13.20;99.90;;;;;;4154122;28;20056;-71
2021/03/03 10:22:42;;;;;;;31.27;18.88;;;13.20;99.90;;;;;;4156625;28;20044;-72
2021/03/03 10:24:43;;;;;;;30.88;17.08;;;13.30;99.90;;;;;;4156289;28;20113;-72
2021/03/03 10:26:49;;;;;;;36.90;20.38;;;13.40;99.90;;;;;;4153447;28;20072;-72
2021/03/03 10:28:53;;;;;;;40.13;21.13;;;13.40;99.90;;;;;;4156011;28;20048;-72
2021/03/03 10:31:02;;;;;;;33.90;18.92;;;13.50;99.90;;;;;;4153539;28;20033;-70
2021/03/03 10:33:04;;;;;;;33.28;19.70;;;13.60;99.90;;;;;;4149214;28;20126;-70